Terminal Aerodrome Forecast
Issued by NWS Goodland, KS

Home | Current Version | Previous Version | Text Only | Print | Product List | Glossary On
Versions: 1 2 3 4 5 6 7 8 9 10 11 12 13 14 15 16
000
FTUS43 KGLD 290535
TAFGLD
TAF
KGLD 290535Z 2906/3006 VRB04KT P6SM SCT250
     FM291500 10012KT P6SM SCT100
     FM291700 13013G19KT P6SM BKN100
     FM300200 16011KT P6SM SCT100=

USA.gov is the U.S. government's official web portal to all federal, state and local government web resources and services.